sensor_id;sensor_type;location;lat;lon;timestamp;P1;durP1;ratioP1;P2;durP2;ratioP2
17741;SDS011;8993;51.822;-2.268;2022-11-20T00:00:41;19.26;;;5.78;;
17741;SDS011;8993;51.822;-2.268;2022-11-20T00:05:45;19.20;;;5.81;;
17741;SDS011;8993;51.822;-2.268;2022-11-20T00:10:50;16.18;;;5.12;;
17741;SDS011;8993;51.822;-2.268;2022-11-20T00:15:56;12.73;;;4.26;;
17741;SDS011;8993;51.822;-2.268;2022-11-20T00:21:00;16.33;;;4.53;;
17741;SDS011;8993;51.822;-2.268;2022-11-20T00:26:03;16.11;;;4.73;;
17741;SDS011;8993;51.822;-2.268;2022-11-20T00:31:09;13.89;;;3.95;;
17741;SDS011;8993;51.822;-2.268;2022-11-20T00:36:12;15.68;;;4.05;;
17741;SDS011;8993;51.822;-2.268;2022-11-20T00:41:16;17.27;;;5.45;;
17741;SDS011;8993;51.822;-2.268;2022-11-20T00:46:21;15.53;;;5.46;;
17741;SDS011;8993;51.822;-2.268;2022-11-20T00:51:26;15.02;;;5.54;;
17741;SDS011;8993;51.822;-2.268;2022-11-20T00:56:32;17.59;;;5.92;;
17741;SDS011;8993;51.822;-2.268;2022-11-20T01:01:37;17.65;;;5.75;;
17741;SDS011;8993;51.822;-2.268;2022-11-20T01:06:41;17.35;;;5.81;;
17741;SDS011;8993;51.822;-2.268;2022-11-20T01:11:45;18.89;;;6.29;;
17741;SDS011;8993;51.822;-2.268;2022-11-20T01:16:50;16.00;;;5.88;;
17741;SDS011;8993;51.822;-2.268;2022-11-20T01:21:53;18.91;;;5.96;;
17741;SDS011;8993;51.822;-2.268;2022-11-20T01:26:58;14.22;;;5.84;;
17741;SDS011;8993;51.822;-2.268;2022-11-20T01:32:02;14.96;;;5.49;;
17741;SDS011;8993;51.822;-2.268;2022-11-20T01:37:07;15.29;;;5.30;;
17741;SDS011;8993;51.822;-2.268;2022-11-20T01:42:13;13.27;;;4.58;;
17741;SDS011;8993;51.822;-2.268;2022-11-20T01:47:17;13.22;;;5.11;;
17741;SDS011;8993;51.822;-2.268;2022-11-20T01:52:22;31.86;;;7.33;;
17741;SDS011;8993;51.822;-2.268;2022-11-20T01:57:31;13.88;;;5.65;;
17741;SDS011;8993;51.822;-2.268;2022-11-20T02:02:35;13.64;;;5.34;;
17741;SDS011;8993;51.822;-2.268;2022-11-20T02:07:39;13.78;;;4.97;;
17741;SDS011;8993;51.822;-2.268;2022-11-20T02:12:44;11.40;;;4.56;;
17741;SDS011;8993;51.822;-2.268;2022-11-20T02:17:48;10.26;;;5.03;;
17741;SDS011;8993;51.822;-2.268;2022-11-20T02:22:54;9.49;;;4.90;;
17741;SDS011;8993;51.822;-2.268;2022-11-20T02:27:57;10.16;;;4.96;;
17741;SDS011;8993;51.822;-2.268;2022-11-20T02:33:01;8.78;;;4.52;;
17741;SDS011;8993;51.822;-2.268;2022-11-20T02:38:05;9.18;;;4.64;;
17741;SDS011;8993;51.822;-2.268;2022-11-20T02:43:10;7.74;;;4.01;;
17741;SDS011;8993;51.822;-2.268;2022-11-20T02:48:14;7.71;;;3.99;;
17741;SDS011;8993;51.822;-2.268;2022-11-20T02:53:18;6.80;;;3.79;;
17741;SDS011;8993;51.822;-2.268;2022-11-20T02:58:23;6.37;;;3.15;;
17741;SDS011;8993;51.822;-2.268;2022-11-20T03:03:27;3.07;;;1.82;;
17741;SDS011;8993;51.822;-2.268;2022-11-20T03:08:31;2.18;;;1.13;;
17741;SDS011;8993;51.822;-2.268;2022-11-20T03:13:35;1.36;;;0.71;;
17741;SDS011;8993;51.822;-2.268;2022-11-20T03:18:42;1.14;;;0.70;;
17741;SDS011;8993;51.822;-2.268;2022-11-20T03:23:46;1.25;;;0.68;;
17741;SDS011;8993;51.822;-2.268;2022-11-20T03:28:50;1.09;;;0.79;;
17741;SDS011;8993;51.822;-2.268;2022-11-20T03:33:55;1.52;;;0.74;;
17741;SDS011;8993;51.822;-2.268;2022-11-20T03:38:59;1.07;;;0.65;;
17741;SDS011;8993;51.822;-2.268;2022-11-20T03:44:04;0.98;;;0.62;;
17741;SDS011;8993;51.822;-2.268;2022-11-20T03:49:07;1.14;;;0.71;;
17741;SDS011;8993;51.822;-2.268;2022-11-20T03:54:11;1.04;;;0.52;;
17741;SDS011;8993;51.822;-2.268;2022-11-20T03:59:17;1.18;;;0.48;;
17741;SDS011;8993;51.822;-2.268;2022-11-20T04:04:22;0.79;;;0.49;;
17741;SDS011;8993;51.822;-2.268;2022-11-20T04:09:26;0.99;;;0.46;;
17741;SDS011;8993;51.822;-2.268;2022-11-20T04:14:31;0.79;;;0.48;;
17741;SDS011;8993;51.822;-2.268;2022-11-20T04:19:35;0.78;;;0.44;;
17741;SDS011;8993;51.822;-2.268;2022-11-20T04:24:39;1.16;;;0.54;;
17741;SDS011;8993;51.822;-2.268;2022-11-20T04:29:43;1.12;;;0.60;;
17741;SDS011;8993;51.822;-2.268;2022-11-20T04:34:47;0.84;;;0.60;;
17741;SDS011;8993;51.822;-2.268;2022-11-20T04:39:52;1.51;;;0.82;;
17741;SDS011;8993;51.822;-2.268;2022-11-20T04:44:56;1.46;;;0.77;;
17741;SDS011;8993;51.822;-2.268;2022-11-20T04:50:01;2.42;;;0.99;;
17741;SDS011;8993;51.822;-2.268;2022-11-20T04:55:07;2.62;;;1.21;;
17741;SDS011;8993;51.822;-2.268;2022-11-20T05:05:16;9.11;;;3.12;;
17741;SDS011;8993;51.822;-2.268;2022-11-20T05:10:20;7.84;;;4.33;;
17741;SDS011;8993;51.822;-2.268;2022-11-20T05:15:24;13.01;;;6.27;;
17741;SDS011;8993;51.822;-2.268;2022-11-20T05:20:29;16.66;;;8.01;;
17741;SDS011;8993;51.822;-2.268;2022-11-20T05:25:33;15.78;;;8.23;;
17741;SDS011;8993;51.822;-2.268;2022-11-20T05:30:37;9.60;;;5.49;;
17741;SDS011;8993;51.822;-2.268;2022-11-20T05:35:41;9.40;;;5.26;;
17741;SDS011;8993;51.822;-2.268;2022-11-20T05:40:46;8.38;;;5.31;;
17741;SDS011;8993;51.822;-2.268;2022-11-20T05:45:51;9.64;;;5.66;;
17741;SDS011;8993;51.822;-2.268;2022-11-20T05:50:56;9.18;;;5.51;;
17741;SDS011;8993;51.822;-2.268;2022-11-20T05:55:58;7.61;;;4.92;;
17741;SDS011;8993;51.822;-2.268;2022-11-20T06:01:03;10.94;;;6.51;;
17741;SDS011;8993;51.822;-2.268;2022-11-20T06:06:07;13.11;;;6.65;;
17741;SDS011;8993;51.822;-2.268;2022-11-20T06:11:12;11.37;;;6.72;;
17741;SDS011;8993;51.822;-2.268;2022-11-20T06:16:17;12.32;;;6.52;;
17741;SDS011;8993;51.822;-2.268;2022-11-20T06:21:21;13.52;;;7.80;;
17741;SDS011;8993;51.822;-2.268;2022-11-20T06:26:25;13.55;;;7.38;;
17741;SDS011;8993;51.822;-2.268;2022-11-20T06:31:29;16.14;;;7.79;;
17741;SDS011;8993;51.822;-2.268;2022-11-20T06:36:33;15.89;;;7.49;;
17741;SDS011;8993;51.822;-2.268;2022-11-20T06:41:37;13.05;;;6.87;;
17741;SDS011;8993;51.822;-2.268;2022-11-20T06:46:42;12.54;;;6.16;;
17741;SDS011;8993;51.822;-2.268;2022-11-20T06:51:47;12.50;;;5.02;;
17741;SDS011;8993;51.822;-2.268;2022-11-20T06:56:51;17.49;;;5.20;;
17741;SDS011;8993;51.822;-2.268;2022-11-20T07:01:55;16.93;;;5.55;;
17741;SDS011;8993;51.822;-2.268;2022-11-20T07:07:00;19.61;;;5.82;;
17741;SDS011;8993;51.822;-2.268;2022-11-20T07:12:05;17.43;;;5.98;;
17741;SDS011;8993;51.822;-2.268;2022-11-20T07:17:10;21.33;;;6.23;;
17741;SDS011;8993;51.822;-2.268;2022-11-20T07:22:14;19.98;;;4.91;;
17741;SDS011;8993;51.822;-2.268;2022-11-20T07:27:18;16.86;;;4.53;;
17741;SDS011;8993;51.822;-2.268;2022-11-20T07:32:22;21.99;;;4.75;;
17741;SDS011;8993;51.822;-2.268;2022-11-20T07:37:28;29.84;;;4.76;;
17741;SDS011;8993;51.822;-2.268;2022-11-20T07:42:32;27.52;;;4.15;;
17741;SDS011;8993;51.822;-2.268;2022-11-20T07:47:37;25.42;;;3.80;;
17741;SDS011;8993;51.822;-2.268;2022-11-20T07:52:42;25.19;;;3.32;;
17741;SDS011;8993;51.822;-2.268;2022-11-20T07:57:46;24.76;;;3.06;;
17741;SDS011;8993;51.822;-2.268;2022-11-20T08:02:50;21.75;;;2.94;;
17741;SDS011;8993;51.822;-2.268;2022-11-20T08:07:56;26.47;;;3.09;;
17741;SDS011;8993;51.822;-2.268;2022-11-20T08:13:00;24.00;;;2.80;;
17741;SDS011;8993;51.822;-2.268;2022-11-20T08:18:05;27.85;;;2.88;;
17741;SDS011;8993;51.822;-2.268;2022-11-20T08:23:12;21.44;;;3.45;;
17741;SDS011;8993;51.822;-2.268;2022-11-20T08:28:16;19.02;;;3.11;;
17741;SDS011;8993;51.822;-2.268;2022-11-20T08:33:21;17.33;;;3.11;;
17741;SDS011;8993;51.822;-2.268;2022-11-20T08:38:25;28.25;;;3.27;;
17741;SDS011;8993;51.822;-2.268;2022-11-20T08:43:29;36.94;;;4.06;;
17741;SDS011;8993;51.822;-2.268;2022-11-20T08:48:33;40.24;;;4.09;;
17741;SDS011;8993;51.822;-2.268;2022-11-20T08:53:38;39.99;;;4.24;;
17741;SDS011;8993;51.822;-2.268;2022-11-20T08:58:42;34.37;;;3.71;;
17741;SDS011;8993;51.822;-2.268;2022-11-20T09:03:46;42.63;;;3.73;;
17741;SDS011;8993;51.822;-2.268;2022-11-20T09:08:51;49.97;;;4.15;;
17741;SDS011;8993;51.822;-2.268;2022-11-20T09:13:55;36.11;;;3.61;;
17741;SDS011;8993;51.822;-2.268;2022-11-20T09:18:59;40.92;;;3.84;;
17741;SDS011;8993;51.822;-2.268;2022-11-20T09:24:04;43.79;;;3.68;;
17741;SDS011;8993;51.822;-2.268;2022-11-20T09:29:07;47.48;;;3.86;;
17741;SDS011;8993;51.822;-2.268;2022-11-20T09:34:11;30.62;;;3.19;;
17741;SDS011;8993;51.822;-2.268;2022-11-20T09:39:16;43.85;;;3.35;;
17741;SDS011;8993;51.822;-2.268;2022-11-20T09:44:25;51.91;;;3.97;;
17741;SDS011;8993;51.822;-2.268;2022-11-20T09:49:26;53.69;;;3.94;;
17741;SDS011;8993;51.822;-2.268;2022-11-20T09:54:30;45.89;;;3.86;;
17741;SDS011;8993;51.822;-2.268;2022-11-20T09:59:35;46.15;;;4.09;;
17741;SDS011;8993;51.822;-2.268;2022-11-20T10:04:37;50.98;;;4.31;;
17741;SDS011;8993;51.822;-2.268;2022-11-20T10:09:43;47.03;;;3.90;;
17741;SDS011;8993;51.822;-2.268;2022-11-20T10:14:52;41.52;;;3.50;;
17741;SDS011;8993;51.822;-2.268;2022-11-20T10:19:54;39.76;;;3.44;;
17741;SDS011;8993;51.822;-2.268;2022-11-20T10:24:55;44.06;;;3.52;;
17741;SDS011;8993;51.822;-2.268;2022-11-20T10:30:00;42.89;;;3.49;;
17741;SDS011;8993;51.822;-2.268;2022-11-20T10:35:05;38.10;;;3.53;;
17741;SDS011;8993;51.822;-2.268;2022-11-20T10:40:14;38.66;;;3.50;;
17741;SDS011;8993;51.822;-2.268;2022-11-20T10:45:15;31.13;;;3.14;;
17741;SDS011;8993;51.822;-2.268;2022-11-20T10:50:19;36.17;;;3.28;;
17741;SDS011;8993;51.822;-2.268;2022-11-20T10:55:26;34.56;;;2.83;;
17741;SDS011;8993;51.822;-2.268;2022-11-20T11:00:30;35.38;;;3.24;;
17741;SDS011;8993;51.822;-2.268;2022-11-20T11:05:34;32.79;;;3.05;;
17741;SDS011;8993;51.822;-2.268;2022-11-20T11:10:41;33.92;;;3.00;;
17741;SDS011;8993;51.822;-2.268;2022-11-20T11:15:44;35.52;;;3.28;;
17741;SDS011;8993;51.822;-2.268;2022-11-20T11:20:50;33.89;;;3.25;;
17741;SDS011;8993;51.822;-2.268;2022-11-20T11:25:56;36.02;;;3.19;;
17741;SDS011;8993;51.822;-2.268;2022-11-20T11:30:56;31.12;;;3.12;;
17741;SDS011;8993;51.822;-2.268;2022-11-20T11:36:01;33.17;;;2.73;;
17741;SDS011;8993;51.822;-2.268;2022-11-20T11:41:07;28.09;;;2.73;;
17741;SDS011;8993;51.822;-2.268;2022-11-20T11:46:20;27.80;;;2.61;;
17741;SDS011;8993;51.822;-2.268;2022-11-20T11:51:19;28.54;;;2.90;;
17741;SDS011;8993;51.822;-2.268;2022-11-20T11:56:20;31.68;;;2.97;;
17741;SDS011;8993;51.822;-2.268;2022-11-20T12:01:26;27.58;;;2.62;;
17741;SDS011;8993;51.822;-2.268;2022-11-20T12:06:32;25.71;;;2.49;;
17741;SDS011;8993;51.822;-2.268;2022-11-20T12:11:38;28.30;;;3.00;;
17741;SDS011;8993;51.822;-2.268;2022-11-20T12:16:42;24.06;;;2.51;;
17741;SDS011;8993;51.822;-2.268;2022-11-20T12:21:51;27.35;;;2.43;;
17741;SDS011;8993;51.822;-2.268;2022-11-20T12:26:54;25.43;;;2.31;;
17741;SDS011;8993;51.822;-2.268;2022-11-20T12:32:03;22.79;;;2.45;;
17741;SDS011;8993;51.822;-2.268;2022-11-20T12:37:01;27.19;;;2.39;;
17741;SDS011;8993;51.822;-2.268;2022-11-20T12:42:09;28.58;;;3.03;;
17741;SDS011;8993;51.822;-2.268;2022-11-20T12:47:12;26.21;;;2.73;;
17741;SDS011;8993;51.822;-2.268;2022-11-20T12:52:17;20.95;;;1.93;;
17741;SDS011;8993;51.822;-2.268;2022-11-20T12:57:19;10.11;;;1.17;;
17741;SDS011;8993;51.822;-2.268;2022-11-20T13:02:24;5.66;;;0.61;;
17741;SDS011;8993;51.822;-2.268;2022-11-20T13:07:26;4.24;;;0.56;;
17741;SDS011;8993;51.822;-2.268;2022-11-20T13:12:31;3.95;;;0.42;;
17741;SDS011;8993;51.822;-2.268;2022-11-20T13:17:38;3.84;;;0.35;;
17741;SDS011;8993;51.822;-2.268;2022-11-20T13:22:43;2.78;;;0.35;;
17741;SDS011;8993;51.822;-2.268;2022-11-20T13:27:47;2.28;;;0.27;;
17741;SDS011;8993;51.822;-2.268;2022-11-20T13:32:51;2.01;;;0.27;;
17741;SDS011;8993;51.822;-2.268;2022-11-20T13:38:01;3.69;;;0.39;;
17741;SDS011;8993;51.822;-2.268;2022-11-20T13:43:07;1.66;;;0.27;;
17741;SDS011;8993;51.822;-2.268;2022-11-20T13:48:04;0.90;;;0.20;;
17741;SDS011;8993;51.822;-2.268;2022-11-20T13:53:11;1.49;;;0.21;;
17741;SDS011;8993;51.822;-2.268;2022-11-20T13:58:16;1.61;;;0.27;;
17741;SDS011;8993;51.822;-2.268;2022-11-20T14:03:18;1.99;;;0.33;;
17741;SDS011;8993;51.822;-2.268;2022-11-20T14:08:24;3.06;;;0.37;;
17741;SDS011;8993;51.822;-2.268;2022-11-20T14:13:25;3.85;;;0.53;;
17741;SDS011;8993;51.822;-2.268;2022-11-20T14:18:29;4.39;;;0.58;;
17741;SDS011;8993;51.822;-2.268;2022-11-20T14:23:33;3.31;;;0.54;;
17741;SDS011;8993;51.822;-2.268;2022-11-20T14:28:37;3.26;;;0.53;;
17741;SDS011;8993;51.822;-2.268;2022-11-20T14:33:42;4.63;;;0.58;;
17741;SDS011;8993;51.822;-2.268;2022-11-20T14:38:46;3.86;;;0.52;;
17741;SDS011;8993;51.822;-2.268;2022-11-20T14:43:51;4.89;;;0.64;;
17741;SDS011;8993;51.822;-2.268;2022-11-20T14:48:55;5.17;;;0.68;;
17741;SDS011;8993;51.822;-2.268;2022-11-20T14:54:11;5.52;;;0.80;;
17741;SDS011;8993;51.822;-2.268;2022-11-20T14:59:03;4.64;;;0.62;;
17741;SDS011;8993;51.822;-2.268;2022-11-20T15:04:09;4.62;;;0.74;;
17741;SDS011;8993;51.822;-2.268;2022-11-20T15:09:13;7.22;;;0.86;;
17741;SDS011;8993;51.822;-2.268;2022-11-20T15:14:18;4.17;;;0.67;;
17741;SDS011;8993;51.822;-2.268;2022-11-20T15:19:23;5.59;;;0.92;;
17741;SDS011;8993;51.822;-2.268;2022-11-20T15:24:27;3.33;;;0.71;;
17741;SDS011;8993;51.822;-2.268;2022-11-20T15:29:32;4.54;;;0.62;;
17741;SDS011;8993;51.822;-2.268;2022-11-20T15:34:38;4.78;;;0.60;;
17741;SDS011;8993;51.822;-2.268;2022-11-20T15:39:41;3.72;;;0.58;;
17741;SDS011;8993;51.822;-2.268;2022-11-20T15:44:45;5.40;;;0.64;;
17741;SDS011;8993;51.822;-2.268;2022-11-20T15:49:50;3.01;;;0.54;;
17741;SDS011;8993;51.822;-2.268;2022-11-20T15:54:54;6.05;;;0.67;;
17741;SDS011;8993;51.822;-2.268;2022-11-20T15:59:58;3.58;;;0.65;;
17741;SDS011;8993;51.822;-2.268;2022-11-20T16:05:04;4.73;;;0.63;;
17741;SDS011;8993;51.822;-2.268;2022-11-20T16:10:07;4.20;;;0.60;;
17741;SDS011;8993;51.822;-2.268;2022-11-20T16:15:12;5.98;;;0.67;;
17741;SDS011;8993;51.822;-2.268;2022-11-20T16:20:17;5.54;;;0.77;;
17741;SDS011;8993;51.822;-2.268;2022-11-20T16:25:21;5.39;;;0.78;;
17741;SDS011;8993;51.822;-2.268;2022-11-20T16:30:26;6.37;;;0.77;;
17741;SDS011;8993;51.822;-2.268;2022-11-20T16:35:31;7.38;;;0.81;;
17741;SDS011;8993;51.822;-2.268;2022-11-20T16:40:35;8.53;;;0.92;;
17741;SDS011;8993;51.822;-2.268;2022-11-20T16:45:40;4.16;;;0.78;;
17741;SDS011;8993;51.822;-2.268;2022-11-20T16:50:45;5.89;;;0.67;;
17741;SDS011;8993;51.822;-2.268;2022-11-20T16:55:48;8.59;;;0.82;;
17741;SDS011;8993;51.822;-2.268;2022-11-20T17:00:55;5.01;;;0.80;;
17741;SDS011;8993;51.822;-2.268;2022-11-20T17:05:59;6.63;;;0.93;;
17741;SDS011;8993;51.822;-2.268;2022-11-20T17:11:04;8.73;;;0.87;;
17741;SDS011;8993;51.822;-2.268;2022-11-20T17:16:09;7.65;;;0.97;;
17741;SDS011;8993;51.822;-2.268;2022-11-20T17:21:15;7.09;;;0.86;;
17741;SDS011;8993;51.822;-2.268;2022-11-20T17:26:19;6.50;;;0.85;;
17741;SDS011;8993;51.822;-2.268;2022-11-20T17:31:22;8.08;;;0.92;;
17741;SDS011;8993;51.822;-2.268;2022-11-20T17:36:27;8.34;;;1.20;;
17741;SDS011;8993;51.822;-2.268;2022-11-20T17:41:31;7.63;;;1.00;;
17741;SDS011;8993;51.822;-2.268;2022-11-20T17:46:35;6.18;;;1.04;;
17741;SDS011;8993;51.822;-2.268;2022-11-20T17:51:40;7.83;;;1.03;;
17741;SDS011;8993;51.822;-2.268;2022-11-20T17:56:44;10.17;;;1.00;;
17741;SDS011;8993;51.822;-2.268;2022-11-20T18:01:48;8.02;;;1.24;;
17741;SDS011;8993;51.822;-2.268;2022-11-20T18:06:53;8.56;;;1.16;;
17741;SDS011;8993;51.822;-2.268;2022-11-20T18:11:57;9.91;;;1.22;;
17741;SDS011;8993;51.822;-2.268;2022-11-20T18:17:02;8.01;;;1.04;;
17741;SDS011;8993;51.822;-2.268;2022-11-20T18:22:07;9.77;;;0.99;;
17741;SDS011;8993;51.822;-2.268;2022-11-20T18:27:12;8.57;;;0.95;;
17741;SDS011;8993;51.822;-2.268;2022-11-20T18:32:15;7.92;;;1.09;;
17741;SDS011;8993;51.822;-2.268;2022-11-20T18:37:19;7.68;;;1.15;;
17741;SDS011;8993;51.822;-2.268;2022-11-20T18:42:23;9.58;;;1.21;;
17741;SDS011;8993;51.822;-2.268;2022-11-20T18:47:30;7.77;;;1.12;;
17741;SDS011;8993;51.822;-2.268;2022-11-20T18:52:37;11.97;;;1.45;;
17741;SDS011;8993;51.822;-2.268;2022-11-20T18:57:38;10.46;;;1.07;;
17741;SDS011;8993;51.822;-2.268;2022-11-20T19:02:43;10.84;;;1.63;;
17741;SDS011;8993;51.822;-2.268;2022-11-20T19:07:47;9.41;;;1.31;;
17741;SDS011;8993;51.822;-2.268;2022-11-20T19:12:51;10.83;;;1.23;;
17741;SDS011;8993;51.822;-2.268;2022-11-20T19:17:57;8.90;;;1.48;;
17741;SDS011;8993;51.822;-2.268;2022-11-20T19:23:01;9.32;;;2.02;;
17741;SDS011;8993;51.822;-2.268;2022-11-20T19:28:06;10.46;;;1.38;;
17741;SDS011;8993;51.822;-2.268;2022-11-20T19:33:10;12.29;;;1.31;;
17741;SDS011;8993;51.822;-2.268;2022-11-20T19:38:15;8.10;;;1.03;;
17741;SDS011;8993;51.822;-2.268;2022-11-20T19:43:19;5.07;;;0.86;;
17741;SDS011;8993;51.822;-2.268;2022-11-20T19:48:24;8.06;;;1.16;;
17741;SDS011;8993;51.822;-2.268;2022-11-20T19:53:28;10.11;;;1.42;;
17741;SDS011;8993;51.822;-2.268;2022-11-20T19:58:32;9.66;;;1.21;;
17741;SDS011;8993;51.822;-2.268;2022-11-20T20:03:37;12.56;;;1.41;;
17741;SDS011;8993;51.822;-2.268;2022-11-20T20:08:41;7.78;;;1.19;;
17741;SDS011;8993;51.822;-2.268;2022-11-20T20:13:46;7.11;;;1.21;;
17741;SDS011;8993;51.822;-2.268;2022-11-20T20:18:53;9.33;;;1.42;;
17741;SDS011;8993;51.822;-2.268;2022-11-20T20:23:55;13.45;;;1.67;;
17741;SDS011;8993;51.822;-2.268;2022-11-20T20:34:04;9.23;;;1.48;;
17741;SDS011;8993;51.822;-2.268;2022-11-20T20:39:08;15.16;;;2.23;;
17741;SDS011;8993;51.822;-2.268;2022-11-20T20:44:12;17.13;;;3.15;;
17741;SDS011;8993;51.822;-2.268;2022-11-20T20:49:17;20.24;;;4.15;;
17741;SDS011;8993;51.822;-2.268;2022-11-20T20:54:21;16.66;;;3.88;;
17741;SDS011;8993;51.822;-2.268;2022-11-20T20:59:26;18.08;;;3.88;;
17741;SDS011;8993;51.822;-2.268;2022-11-20T21:04:30;14.73;;;3.09;;
17741;SDS011;8993;51.822;-2.268;2022-11-20T21:09:35;17.93;;;3.66;;
17741;SDS011;8993;51.822;-2.268;2022-11-20T21:14:39;19.70;;;3.73;;
17741;SDS011;8993;51.822;-2.268;2022-11-20T21:19:45;25.21;;;4.60;;
17741;SDS011;8993;51.822;-2.268;2022-11-20T21:24:49;21.46;;;4.32;;
17741;SDS011;8993;51.822;-2.268;2022-11-20T21:29:53;23.16;;;4.66;;
17741;SDS011;8993;51.822;-2.268;2022-11-20T21:34:57;20.38;;;3.77;;
17741;SDS011;8993;51.822;-2.268;2022-11-20T21:40:02;15.75;;;3.08;;
17741;SDS011;8993;51.822;-2.268;2022-11-20T21:45:07;15.55;;;2.33;;
17741;SDS011;8993;51.822;-2.268;2022-11-20T21:50:11;14.92;;;2.29;;
17741;SDS011;8993;51.822;-2.268;2022-11-20T21:55:15;20.44;;;2.79;;
17741;SDS011;8993;51.822;-2.268;2022-11-20T22:00:19;16.18;;;2.49;;
17741;SDS011;8993;51.822;-2.268;2022-11-20T22:05:24;19.14;;;3.26;;
17741;SDS011;8993;51.822;-2.268;2022-11-20T22:10:29;18.22;;;3.11;;
17741;SDS011;8993;51.822;-2.268;2022-11-20T22:15:33;22.77;;;4.20;;
17741;SDS011;8993;51.822;-2.268;2022-11-20T22:20:37;16.37;;;3.46;;
17741;SDS011;8993;51.822;-2.268;2022-11-20T22:25:42;17.36;;;2.73;;
17741;SDS011;8993;51.822;-2.268;2022-11-20T22:30:48;14.42;;;2.72;;
17741;SDS011;8993;51.822;-2.268;2022-11-20T22:35:53;16.48;;;2.79;;
17741;SDS011;8993;51.822;-2.268;2022-11-20T22:41:00;16.82;;;2.63;;
17741;SDS011;8993;51.822;-2.268;2022-11-20T22:46:03;13.74;;;2.25;;
17741;SDS011;8993;51.822;-2.268;2022-11-20T22:51:07;20.53;;;2.03;;
17741;SDS011;8993;51.822;-2.268;2022-11-20T22:56:12;17.85;;;1.71;;
17741;SDS011;8993;51.822;-2.268;2022-11-20T23:01:16;18.87;;;1.69;;
17741;SDS011;8993;51.822;-2.268;2022-11-20T23:06:20;13.77;;;1.34;;
17741;SDS011;8993;51.822;-2.268;2022-11-20T23:11:25;11.49;;;1.58;;
17741;SDS011;8993;51.822;-2.268;2022-11-20T23:16:30;13.17;;;1.28;;
17741;SDS011;8993;51.822;-2.268;2022-11-20T23:21:33;14.58;;;1.52;;
17741;SDS011;8993;51.822;-2.268;2022-11-20T23:26:38;13.80;;;1.44;;
17741;SDS011;8993;51.822;-2.268;2022-11-20T23:31:45;9.55;;;1.31;;
17741;SDS011;8993;51.822;-2.268;2022-11-20T23:36:49;13.94;;;1.44;;
17741;SDS011;8993;51.822;-2.268;2022-11-20T23:41:53;10.70;;;1.34;;
17741;SDS011;8993;51.822;-2.268;2022-11-20T23:47:02;17.45;;;1.58;;
17741;SDS011;8993;51.822;-2.268;2022-11-20T23:52:06;18.87;;;1.75;;
17741;SDS011;8993;51.822;-2.268;2022-11-20T23:57:10;22.81;;;2.08;;
